sensor_id;sensor_type;location;lat;lon;timestamp;P1;durP1;ratioP1;P2;durP2;ratioP2
10963;SDS011;5534;48.784;9.190;2023-03-01T00:01:36;12.60;;;8.47;;
10963;SDS011;5534;48.784;9.190;2023-03-01T00:04:01;12.37;;;8.17;;
10963;SDS011;5534;48.784;9.190;2023-03-01T00:06:27;13.67;;;7.97;;
10963;SDS011;5534;48.784;9.190;2023-03-01T00:08:53;14.60;;;8.73;;
10963;SDS011;5534;48.784;9.190;2023-03-01T00:11:20;14.30;;;8.17;;
10963;SDS011;5534;48.784;9.190;2023-03-01T00:13:51;13.67;;;8.10;;
10963;SDS011;5534;48.784;9.190;2023-03-01T00:16:28;14.60;;;7.80;;
10963;SDS011;5534;48.784;9.190;2023-03-01T00:18:56;12.27;;;8.27;;
10963;SDS011;5534;48.784;9.190;2023-03-01T00:21:23;12.93;;;8.53;;
10963;SDS011;5534;48.784;9.190;2023-03-01T00:23:53;12.87;;;7.93;;
10963;SDS011;5534;48.784;9.190;2023-03-01T00:26:23;14.17;;;8.50;;
10963;SDS011;5534;48.784;9.190;2023-03-01T00:28:49;13.00;;;8.90;;
10963;SDS011;5534;48.784;9.190;2023-03-01T00:31:17;15.57;;;9.33;;
10963;SDS011;5534;48.784;9.190;2023-03-01T00:33:45;13.77;;;8.20;;
10963;SDS011;5534;48.784;9.190;2023-03-01T00:36:11;13.17;;;8.20;;
10963;SDS011;5534;48.784;9.190;2023-03-01T00:38:40;12.73;;;7.70;;
10963;SDS011;5534;48.784;9.190;2023-03-01T00:41:10;13.23;;;8.30;;
10963;SDS011;5534;48.784;9.190;2023-03-01T00:43:37;13.33;;;8.27;;
10963;SDS011;5534;48.784;9.190;2023-03-01T00:46:05;13.60;;;8.37;;
10963;SDS011;5534;48.784;9.190;2023-03-01T00:48:33;12.73;;;8.30;;
10963;SDS011;5534;48.784;9.190;2023-03-01T00:53:36;11.97;;;7.83;;
10963;SDS011;5534;48.784;9.190;2023-03-01T00:56:02;13.53;;;8.23;;
10963;SDS011;5534;48.784;9.190;2023-03-01T00:58:32;13.57;;;7.63;;
10963;SDS011;5534;48.784;9.190;2023-03-01T01:00:58;13.27;;;7.73;;
10963;SDS011;5534;48.784;9.190;2023-03-01T01:03:25;15.00;;;8.27;;
10963;SDS011;5534;48.784;9.190;2023-03-01T01:05:51;15.77;;;8.57;;
10963;SDS011;5534;48.784;9.190;2023-03-01T01:08:18;13.00;;;7.33;;
10963;SDS011;5534;48.784;9.190;2023-03-01T01:10:45;12.43;;;7.90;;
10963;SDS011;5534;48.784;9.190;2023-03-01T01:13:11;15.60;;;8.27;;
10963;SDS011;5534;48.784;9.190;2023-03-01T01:15:37;11.87;;;7.90;;
10963;SDS011;5534;48.784;9.190;2023-03-01T01:18:04;12.57;;;8.20;;
10963;SDS011;5534;48.784;9.190;2023-03-01T01:20:30;11.93;;;7.80;;
10963;SDS011;5534;48.784;9.190;2023-03-01T01:22:55;14.53;;;8.10;;
10963;SDS011;5534;48.784;9.190;2023-03-01T01:25:21;10.97;;;7.73;;
10963;SDS011;5534;48.784;9.190;2023-03-01T01:27:50;12.67;;;7.77;;
10963;SDS011;5534;48.784;9.190;2023-03-01T01:30:16;14.33;;;8.37;;
10963;SDS011;5534;48.784;9.190;2023-03-01T01:32:42;12.67;;;8.17;;
10963;SDS011;5534;48.784;9.190;2023-03-01T01:35:08;15.03;;;8.63;;
10963;SDS011;5534;48.784;9.190;2023-03-01T01:37:34;13.87;;;8.10;;
10963;SDS011;5534;48.784;9.190;2023-03-01T01:40:00;12.50;;;8.00;;
10963;SDS011;5534;48.784;9.190;2023-03-01T01:42:29;12.63;;;7.90;;
10963;SDS011;5534;48.784;9.190;2023-03-01T01:47:53;13.40;;;8.10;;
10963;SDS011;5534;48.784;9.190;2023-03-01T01:50:22;12.47;;;8.67;;
10963;SDS011;5534;48.784;9.190;2023-03-01T01:52:48;13.97;;;8.50;;
10963;SDS011;5534;48.784;9.190;2023-03-01T01:55:21;12.53;;;8.27;;
10963;SDS011;5534;48.784;9.190;2023-03-01T01:57:56;12.57;;;8.13;;
10963;SDS011;5534;48.784;9.190;2023-03-01T02:00:27;13.13;;;8.77;;
10963;SDS011;5534;48.784;9.190;2023-03-01T02:02:55;12.33;;;7.73;;
10963;SDS011;5534;48.784;9.190;2023-03-01T02:08:16;14.83;;;8.33;;
10963;SDS011;5534;48.784;9.190;2023-03-01T02:10:44;13.60;;;7.90;;
10963;SDS011;5534;48.784;9.190;2023-03-01T02:13:11;13.20;;;8.07;;
10963;SDS011;5534;48.784;9.190;2023-03-01T02:15:38;14.60;;;9.17;;
10963;SDS011;5534;48.784;9.190;2023-03-01T02:18:05;12.20;;;7.90;;
10963;SDS011;5534;48.784;9.190;2023-03-01T02:20:33;15.93;;;9.23;;
10963;SDS011;5534;48.784;9.190;2023-03-01T02:23:09;14.00;;;9.00;;
10963;SDS011;5534;48.784;9.190;2023-03-01T02:28:23;15.83;;;8.43;;
10963;SDS011;5534;48.784;9.190;2023-03-01T02:30:56;13.13;;;8.40;;
10963;SDS011;5534;48.784;9.190;2023-03-01T02:33:41;15.00;;;9.37;;
10963;SDS011;5534;48.784;9.190;2023-03-01T02:36:09;14.67;;;9.13;;
10963;SDS011;5534;48.784;9.190;2023-03-01T02:38:40;15.53;;;8.80;;
10963;SDS011;5534;48.784;9.190;2023-03-01T02:41:07;13.23;;;8.57;;
10963;SDS011;5534;48.784;9.190;2023-03-01T02:43:35;16.00;;;9.60;;
10963;SDS011;5534;48.784;9.190;2023-03-01T02:46:03;15.43;;;9.00;;
10963;SDS011;5534;48.784;9.190;2023-03-01T02:48:46;14.03;;;8.57;;
10963;SDS011;5534;48.784;9.190;2023-03-01T02:56:47;14.00;;;8.93;;
10963;SDS011;5534;48.784;9.190;2023-03-01T02:59:15;13.30;;;9.23;;
10963;SDS011;5534;48.784;9.190;2023-03-01T03:01:43;13.63;;;9.17;;
10963;SDS011;5534;48.784;9.190;2023-03-01T03:04:10;15.37;;;8.87;;
10963;SDS011;5534;48.784;9.190;2023-03-01T03:06:42;14.53;;;9.30;;
10963;SDS011;5534;48.784;9.190;2023-03-01T03:09:12;14.67;;;9.00;;
10963;SDS011;5534;48.784;9.190;2023-03-01T03:11:38;15.20;;;8.57;;
10963;SDS011;5534;48.784;9.190;2023-03-01T03:14:11;12.73;;;7.97;;
10963;SDS011;5534;48.784;9.190;2023-03-01T03:16:39;15.30;;;8.97;;
10963;SDS011;5534;48.784;9.190;2023-03-01T03:19:06;14.23;;;9.30;;
10963;SDS011;5534;48.784;9.190;2023-03-01T03:21:32;14.20;;;9.37;;
10963;SDS011;5534;48.784;9.190;2023-03-01T03:23:58;15.50;;;8.97;;
10963;SDS011;5534;48.784;9.190;2023-03-01T03:26:24;15.80;;;9.47;;
10963;SDS011;5534;48.784;9.190;2023-03-01T03:28:50;16.23;;;9.13;;
10963;SDS011;5534;48.784;9.190;2023-03-01T03:31:16;14.23;;;9.43;;
10963;SDS011;5534;48.784;9.190;2023-03-01T03:33:42;13.30;;;9.43;;
10963;SDS011;5534;48.784;9.190;2023-03-01T03:36:07;14.23;;;8.47;;
10963;SDS011;5534;48.784;9.190;2023-03-01T03:38:38;18.43;;;9.33;;
10963;SDS011;5534;48.784;9.190;2023-03-01T03:41:06;15.00;;;9.27;;
10963;SDS011;5534;48.784;9.190;2023-03-01T03:43:34;16.03;;;9.47;;
10963;SDS011;5534;48.784;9.190;2023-03-01T03:46:01;16.17;;;9.17;;
10963;SDS011;5534;48.784;9.190;2023-03-01T03:48:34;11.17;;;8.40;;
10963;SDS011;5534;48.784;9.190;2023-03-01T03:51:00;15.77;;;9.13;;
10963;SDS011;5534;48.784;9.190;2023-03-01T03:53:27;14.03;;;8.33;;
10963;SDS011;5534;48.784;9.190;2023-03-01T03:55:54;14.70;;;9.70;;
10963;SDS011;5534;48.784;9.190;2023-03-01T03:58:21;17.13;;;9.87;;
10963;SDS011;5534;48.784;9.190;2023-03-01T04:00:49;15.63;;;9.20;;
10963;SDS011;5534;48.784;9.190;2023-03-01T04:03:16;14.77;;;9.40;;
10963;SDS011;5534;48.784;9.190;2023-03-01T04:05:44;14.43;;;9.20;;
10963;SDS011;5534;48.784;9.190;2023-03-01T04:08:10;13.27;;;8.80;;
10963;SDS011;5534;48.784;9.190;2023-03-01T04:10:37;16.93;;;9.83;;
10963;SDS011;5534;48.784;9.190;2023-03-01T04:13:05;16.77;;;9.90;;
10963;SDS011;5534;48.784;9.190;2023-03-01T04:15:33;20.23;;;10.37;;
10963;SDS011;5534;48.784;9.190;2023-03-01T04:17:59;15.17;;;9.63;;
10963;SDS011;5534;48.784;9.190;2023-03-01T04:20:27;18.97;;;10.07;;
10963;SDS011;5534;48.784;9.190;2023-03-01T04:22:59;15.13;;;9.13;;
10963;SDS011;5534;48.784;9.190;2023-03-01T04:28:11;17.37;;;10.03;;
10963;SDS011;5534;48.784;9.190;2023-03-01T04:30:37;15.40;;;9.10;;
10963;SDS011;5534;48.784;9.190;2023-03-01T04:33:07;15.93;;;10.30;;
10963;SDS011;5534;48.784;9.190;2023-03-01T04:35:34;16.97;;;9.53;;
10963;SDS011;5534;48.784;9.190;2023-03-01T04:38:01;17.90;;;9.70;;
10963;SDS011;5534;48.784;9.190;2023-03-01T04:40:28;17.27;;;9.67;;
10963;SDS011;5534;48.784;9.190;2023-03-01T04:42:53;16.00;;;9.73;;
10963;SDS011;5534;48.784;9.190;2023-03-01T04:45:19;15.97;;;9.93;;
10963;SDS011;5534;48.784;9.190;2023-03-01T04:47:45;16.70;;;10.03;;
10963;SDS011;5534;48.784;9.190;2023-03-01T04:50:12;18.47;;;9.97;;
10963;SDS011;5534;48.784;9.190;2023-03-01T04:52:42;14.13;;;8.87;;
10963;SDS011;5534;48.784;9.190;2023-03-01T04:55:08;15.03;;;9.73;;
10963;SDS011;5534;48.784;9.190;2023-03-01T04:57:35;14.33;;;9.43;;
10963;SDS011;5534;48.784;9.190;2023-03-01T05:00:00;16.50;;;9.67;;
10963;SDS011;5534;48.784;9.190;2023-03-01T05:03:06;15.43;;;9.77;;
10963;SDS011;5534;48.784;9.190;2023-03-01T05:05:37;19.30;;;9.80;;
10963;SDS011;5534;48.784;9.190;2023-03-01T05:08:04;17.77;;;10.27;;
10963;SDS011;5534;48.784;9.190;2023-03-01T05:10:33;15.77;;;9.77;;
10963;SDS011;5534;48.784;9.190;2023-03-01T05:13:00;16.20;;;9.50;;
10963;SDS011;5534;48.784;9.190;2023-03-01T05:15:28;14.47;;;9.10;;
10963;SDS011;5534;48.784;9.190;2023-03-01T05:17:56;18.53;;;10.17;;
10963;SDS011;5534;48.784;9.190;2023-03-01T05:20:26;15.73;;;9.83;;
10963;SDS011;5534;48.784;9.190;2023-03-01T05:22:55;14.97;;;9.47;;
10963;SDS011;5534;48.784;9.190;2023-03-01T05:25:24;14.77;;;9.90;;
10963;SDS011;5534;48.784;9.190;2023-03-01T05:27:49;19.07;;;10.60;;
10963;SDS011;5534;48.784;9.190;2023-03-01T05:30:16;14.10;;;9.93;;
10963;SDS011;5534;48.784;9.190;2023-03-01T05:32:43;14.53;;;9.47;;
10963;SDS011;5534;48.784;9.190;2023-03-01T05:35:11;17.23;;;9.90;;
10963;SDS011;5534;48.784;9.190;2023-03-01T05:37:48;18.00;;;9.80;;
10963;SDS011;5534;48.784;9.190;2023-03-01T05:40:19;15.67;;;9.40;;
10963;SDS011;5534;48.784;9.190;2023-03-01T05:42:47;18.67;;;9.90;;
10963;SDS011;5534;48.784;9.190;2023-03-01T05:45:15;14.93;;;9.17;;
10963;SDS011;5534;48.784;9.190;2023-03-01T05:47:42;16.50;;;9.80;;
10963;SDS011;5534;48.784;9.190;2023-03-01T05:50:11;17.73;;;9.47;;
10963;SDS011;5534;48.784;9.190;2023-03-01T05:52:38;19.07;;;9.80;;
10963;SDS011;5534;48.784;9.190;2023-03-01T05:55:04;16.33;;;9.60;;
10963;SDS011;5534;48.784;9.190;2023-03-01T05:57:30;14.37;;;9.27;;
10963;SDS011;5534;48.784;9.190;2023-03-01T05:59:56;16.27;;;10.23;;
10963;SDS011;5534;48.784;9.190;2023-03-01T06:02:22;16.73;;;10.00;;
10963;SDS011;5534;48.784;9.190;2023-03-01T06:04:48;16.37;;;10.10;;
10963;SDS011;5534;48.784;9.190;2023-03-01T06:07:13;15.17;;;9.70;;
10963;SDS011;5534;48.784;9.190;2023-03-01T06:09:39;15.87;;;9.40;;
10963;SDS011;5534;48.784;9.190;2023-03-01T06:12:05;16.57;;;10.27;;
10963;SDS011;5534;48.784;9.190;2023-03-01T06:14:31;13.40;;;9.17;;
10963;SDS011;5534;48.784;9.190;2023-03-01T06:16:57;16.90;;;10.43;;
10963;SDS011;5534;48.784;9.190;2023-03-01T06:19:23;15.77;;;9.60;;
10963;SDS011;5534;48.784;9.190;2023-03-01T06:21:49;15.70;;;10.40;;
10963;SDS011;5534;48.784;9.190;2023-03-01T06:24:14;17.97;;;10.97;;
10963;SDS011;5534;48.784;9.190;2023-03-01T06:26:40;17.73;;;10.47;;
10963;SDS011;5534;48.784;9.190;2023-03-01T06:29:06;15.63;;;10.53;;
10963;SDS011;5534;48.784;9.190;2023-03-01T06:31:33;18.73;;;10.93;;
10963;SDS011;5534;48.784;9.190;2023-03-01T06:33:59;15.10;;;9.57;;
10963;SDS011;5534;48.784;9.190;2023-03-01T06:36:25;19.23;;;11.57;;
10963;SDS011;5534;48.784;9.190;2023-03-01T06:38:51;15.23;;;10.53;;
10963;SDS011;5534;48.784;9.190;2023-03-01T06:41:16;17.37;;;10.30;;
10963;SDS011;5534;48.784;9.190;2023-03-01T06:43:42;15.93;;;10.13;;
10963;SDS011;5534;48.784;9.190;2023-03-01T06:46:08;16.30;;;10.10;;
10963;SDS011;5534;48.784;9.190;2023-03-01T06:48:34;17.73;;;10.17;;
10963;SDS011;5534;48.784;9.190;2023-03-01T06:50:59;16.90;;;10.33;;
10963;SDS011;5534;48.784;9.190;2023-03-01T06:53:26;16.97;;;10.83;;
10963;SDS011;5534;48.784;9.190;2023-03-01T06:55:56;18.50;;;10.73;;
10963;SDS011;5534;48.784;9.190;2023-03-01T06:58:23;15.33;;;10.17;;
10963;SDS011;5534;48.784;9.190;2023-03-01T07:00:48;17.23;;;10.50;;
10963;SDS011;5534;48.784;9.190;2023-03-01T07:03:14;16.83;;;12.38;;
10963;SDS011;5534;48.784;9.190;2023-03-01T07:05:40;16.80;;;11.07;;
10963;SDS011;5534;48.784;9.190;2023-03-01T07:08:05;18.07;;;10.07;;
10963;SDS011;5534;48.784;9.190;2023-03-01T07:10:31;18.43;;;10.37;;
10963;SDS011;5534;48.784;9.190;2023-03-01T07:12:58;16.80;;;10.57;;
10963;SDS011;5534;48.784;9.190;2023-03-01T07:15:24;17.90;;;11.23;;
10963;SDS011;5534;48.784;9.190;2023-03-01T07:17:51;16.93;;;9.77;;
10963;SDS011;5534;48.784;9.190;2023-03-01T07:20:20;16.60;;;10.63;;
10963;SDS011;5534;48.784;9.190;2023-03-01T07:22:53;18.60;;;10.97;;
10963;SDS011;5534;48.784;9.190;2023-03-01T07:25:20;16.10;;;10.07;;
10963;SDS011;5534;48.784;9.190;2023-03-01T07:27:52;17.40;;;11.03;;
10963;SDS011;5534;48.784;9.190;2023-03-01T07:30:19;18.03;;;9.90;;
10963;SDS011;5534;48.784;9.190;2023-03-01T07:32:46;18.63;;;10.53;;
10963;SDS011;5534;48.784;9.190;2023-03-01T07:35:12;16.43;;;11.27;;
10963;SDS011;5534;48.784;9.190;2023-03-01T07:37:37;18.80;;;11.13;;
10963;SDS011;5534;48.784;9.190;2023-03-01T07:40:03;21.03;;;10.93;;
10963;SDS011;5534;48.784;9.190;2023-03-01T07:42:30;23.00;;;10.83;;
10963;SDS011;5534;48.784;9.190;2023-03-01T07:44:55;18.73;;;11.00;;
10963;SDS011;5534;48.784;9.190;2023-03-01T07:47:21;17.63;;;10.77;;
10963;SDS011;5534;48.784;9.190;2023-03-01T07:49:47;19.80;;;11.47;;
10963;SDS011;5534;48.784;9.190;2023-03-01T07:52:12;22.47;;;11.23;;
10963;SDS011;5534;48.784;9.190;2023-03-01T07:54:38;16.83;;;9.63;;
10963;SDS011;5534;48.784;9.190;2023-03-01T07:57:04;17.37;;;10.80;;
10963;SDS011;5534;48.784;9.190;2023-03-01T07:59:30;20.13;;;10.57;;
10963;SDS011;5534;48.784;9.190;2023-03-01T08:01:56;19.13;;;10.70;;
10963;SDS011;5534;48.784;9.190;2023-03-01T08:04:22;18.23;;;11.17;;
10963;SDS011;5534;48.784;9.190;2023-03-01T08:06:50;20.43;;;10.97;;
10963;SDS011;5534;48.784;9.190;2023-03-01T08:09:16;20.07;;;11.27;;
10963;SDS011;5534;48.784;9.190;2023-03-01T08:11:42;18.43;;;11.17;;
10963;SDS011;5534;48.784;9.190;2023-03-01T08:14:07;18.33;;;10.77;;
10963;SDS011;5534;48.784;9.190;2023-03-01T08:16:34;18.40;;;10.23;;
10963;SDS011;5534;48.784;9.190;2023-03-01T08:19:07;18.27;;;10.60;;
10963;SDS011;5534;48.784;9.190;2023-03-01T08:21:34;23.13;;;12.53;;
10963;SDS011;5534;48.784;9.190;2023-03-01T08:24:03;18.67;;;11.10;;
10963;SDS011;5534;48.784;9.190;2023-03-01T08:26:30;17.50;;;11.03;;
10963;SDS011;5534;48.784;9.190;2023-03-01T08:28:59;19.23;;;11.50;;
10963;SDS011;5534;48.784;9.190;2023-03-01T08:31:30;18.33;;;11.43;;
10963;SDS011;5534;48.784;9.190;2023-03-01T08:34:04;19.30;;;11.93;;
10963;SDS011;5534;48.784;9.190;2023-03-01T08:36:33;17.93;;;11.83;;
10963;SDS011;5534;48.784;9.190;2023-03-01T08:39:02;19.70;;;11.17;;
10963;SDS011;5534;48.784;9.190;2023-03-01T08:41:29;19.33;;;11.30;;
10963;SDS011;5534;48.784;9.190;2023-03-01T08:43:55;18.57;;;11.37;;
10963;SDS011;5534;48.784;9.190;2023-03-01T08:46:31;21.83;;;11.07;;
10963;SDS011;5534;48.784;9.190;2023-03-01T08:48:58;21.80;;;11.27;;
10963;SDS011;5534;48.784;9.190;2023-03-01T08:51:24;18.83;;;11.57;;
10963;SDS011;5534;48.784;9.190;2023-03-01T08:53:50;18.67;;;11.43;;
10963;SDS011;5534;48.784;9.190;2023-03-01T08:56:17;20.23;;;11.40;;
10963;SDS011;5534;48.784;9.190;2023-03-01T08:58:46;18.47;;;11.20;;
10963;SDS011;5534;48.784;9.190;2023-03-01T09:01:14;18.77;;;11.60;;
10963;SDS011;5534;48.784;9.190;2023-03-01T09:03:43;19.60;;;10.83;;
10963;SDS011;5534;48.784;9.190;2023-03-01T09:06:13;17.17;;;10.60;;
10963;SDS011;5534;48.784;9.190;2023-03-01T09:08:40;17.73;;;11.30;;
10963;SDS011;5534;48.784;9.190;2023-03-01T09:11:08;18.63;;;12.13;;
10963;SDS011;5534;48.784;9.190;2023-03-01T09:13:35;20.63;;;11.77;;
10963;SDS011;5534;48.784;9.190;2023-03-01T09:16:02;18.63;;;10.97;;
10963;SDS011;5534;48.784;9.190;2023-03-01T09:18:29;16.73;;;10.50;;
10963;SDS011;5534;48.784;9.190;2023-03-01T09:21:03;18.70;;;11.50;;
10963;SDS011;5534;48.784;9.190;2023-03-01T09:23:33;18.27;;;10.97;;
10963;SDS011;5534;48.784;9.190;2023-03-01T09:26:04;18.70;;;10.80;;
10963;SDS011;5534;48.784;9.190;2023-03-01T09:28:31;16.93;;;10.87;;
10963;SDS011;5534;48.784;9.190;2023-03-01T09:30:57;19.30;;;11.67;;
10963;SDS011;5534;48.784;9.190;2023-03-01T09:33:24;17.77;;;11.47;;
10963;SDS011;5534;48.784;9.190;2023-03-01T09:35:55;17.10;;;11.03;;
10963;SDS011;5534;48.784;9.190;2023-03-01T09:38:22;19.50;;;11.73;;
10963;SDS011;5534;48.784;9.190;2023-03-01T09:40:48;19.63;;;11.57;;
10963;SDS011;5534;48.784;9.190;2023-03-01T09:43:18;19.17;;;11.77;;
10963;SDS011;5534;48.784;9.190;2023-03-01T09:45:54;17.73;;;11.10;;
10963;SDS011;5534;48.784;9.190;2023-03-01T09:48:24;21.63;;;11.47;;
10963;SDS011;5534;48.784;9.190;2023-03-01T09:50:52;19.00;;;11.37;;
10963;SDS011;5534;48.784;9.190;2023-03-01T09:53:22;18.30;;;11.40;;
10963;SDS011;5534;48.784;9.190;2023-03-01T09:56:10;19.00;;;11.70;;
10963;SDS011;5534;48.784;9.190;2023-03-01T10:04:24;20.33;;;11.03;;
10963;SDS011;5534;48.784;9.190;2023-03-01T10:06:58;20.07;;;11.70;;
10963;SDS011;5534;48.784;9.190;2023-03-01T10:09:33;18.30;;;10.87;;
10963;SDS011;5534;48.784;9.190;2023-03-01T10:12:02;17.43;;;10.83;;
10963;SDS011;5534;48.784;9.190;2023-03-01T10:14:39;17.43;;;11.20;;
10963;SDS011;5534;48.784;9.190;2023-03-01T10:17:12;14.60;;;9.83;;
10963;SDS011;5534;48.784;9.190;2023-03-01T10:19:58;22.00;;;12.43;;
10963;SDS011;5534;48.784;9.190;2023-03-01T10:22:40;17.13;;;10.20;;
10963;SDS011;5534;48.784;9.190;2023-03-01T10:25:06;16.27;;;10.67;;
10963;SDS011;5534;48.784;9.190;2023-03-01T10:27:44;15.97;;;10.43;;
10963;SDS011;5534;48.784;9.190;2023-03-01T10:30:29;18.30;;;11.00;;
10963;SDS011;5534;48.784;9.190;2023-03-01T10:33:01;15.10;;;10.10;;
10963;SDS011;5534;48.784;9.190;2023-03-01T10:35:28;16.00;;;9.77;;
10963;SDS011;5534;48.784;9.190;2023-03-01T10:37:58;18.43;;;10.70;;
10963;SDS011;5534;48.784;9.190;2023-03-01T10:40:28;14.50;;;9.87;;
10963;SDS011;5534;48.784;9.190;2023-03-01T10:42:54;19.40;;;11.07;;
10963;SDS011;5534;48.784;9.190;2023-03-01T10:53:24;17.27;;;10.20;;
10963;SDS011;5534;48.784;9.190;2023-03-01T10:56:11;14.03;;;9.90;;
10963;SDS011;5534;48.784;9.190;2023-03-01T10:58:39;21.50;;;10.23;;
10963;SDS011;5534;48.784;9.190;2023-03-01T11:01:26;18.67;;;9.87;;
10963;SDS011;5534;48.784;9.190;2023-03-01T11:04:12;17.97;;;10.00;;
10963;SDS011;5534;48.784;9.190;2023-03-01T11:06:41;18.60;;;10.83;;
10963;SDS011;5534;48.784;9.190;2023-03-01T11:09:20;15.57;;;10.60;;
10963;SDS011;5534;48.784;9.190;2023-03-01T11:11:55;17.00;;;10.10;;
10963;SDS011;5534;48.784;9.190;2023-03-01T11:14:25;20.87;;;12.07;;
10963;SDS011;5534;48.784;9.190;2023-03-01T11:17:01;16.20;;;10.47;;
10963;SDS011;5534;48.784;9.190;2023-03-01T11:19:36;16.50;;;10.20;;
10963;SDS011;5534;48.784;9.190;2023-03-01T11:24:58;14.63;;;10.33;;
10963;SDS011;5534;48.784;9.190;2023-03-01T11:27:28;15.27;;;9.97;;
10963;SDS011;5534;48.784;9.190;2023-03-01T11:29:59;19.50;;;12.50;;
10963;SDS011;5534;48.784;9.190;2023-03-01T11:36:35;16.83;;;10.20;;
10963;SDS011;5534;48.784;9.190;2023-03-01T11:38:40;16.30;;;10.13;;
10963;SDS011;5534;48.784;9.190;2023-03-01T11:41:10;24.17;;;15.73;;
10963;SDS011;5534;48.784;9.190;2023-03-01T11:43:59;17.80;;;11.33;;
10963;SDS011;5534;48.784;9.190;2023-03-01T11:52:30;16.03;;;10.47;;
10963;SDS011;5534;48.784;9.190;2023-03-01T12:06:39;15.47;;;10.53;;
10963;SDS011;5534;48.784;9.190;2023-03-01T12:29:25;12.20;;;8.47;;
10963;SDS011;5534;48.784;9.190;2023-03-01T12:32:09;14.23;;;9.37;;
10963;SDS011;5534;48.784;9.190;2023-03-01T12:47:02;12.30;;;9.00;;
10963;SDS011;5534;48.784;9.190;2023-03-01T12:49:01;14.20;;;9.80;;
10963;SDS011;5534;48.784;9.190;2023-03-01T12:51:35;14.67;;;8.47;;
10963;SDS011;5534;48.784;9.190;2023-03-01T12:54:11;11.63;;;8.27;;
10963;SDS011;5534;48.784;9.190;2023-03-01T12:56:41;12.37;;;8.40;;
10963;SDS011;5534;48.784;9.190;2023-03-01T13:02:19;15.23;;;8.60;;
10963;SDS011;5534;48.784;9.190;2023-03-01T13:10:27;12.47;;;8.43;;
10963;SDS011;5534;48.784;9.190;2023-03-01T13:15:29;11.73;;;8.13;;
10963;SDS011;5534;48.784;9.190;2023-03-01T13:18:00;14.00;;;8.37;;
10963;SDS011;5534;48.784;9.190;2023-03-01T13:33:55;14.03;;;9.00;;
10963;SDS011;5534;48.784;9.190;2023-03-01T13:38:55;14.50;;;9.50;;
10963;SDS011;5534;48.784;9.190;2023-03-01T13:52:45;16.00;;;9.90;;
10963;SDS011;5534;48.784;9.190;2023-03-01T13:58:04;15.00;;;10.10;;
10963;SDS011;5534;48.784;9.190;2023-03-01T14:00:40;16.00;;;9.43;;
10963;SDS011;5534;48.784;9.190;2023-03-01T14:03:16;15.13;;;10.10;;
10963;SDS011;5534;48.784;9.190;2023-03-01T14:05:57;14.17;;;9.63;;
10963;SDS011;5534;48.784;9.190;2023-03-01T14:08:24;14.30;;;10.03;;
10963;SDS011;5534;48.784;9.190;2023-03-01T14:11:02;14.57;;;9.80;;
10963;SDS011;5534;48.784;9.190;2023-03-01T14:16:12;16.63;;;11.30;;
10963;SDS011;5534;48.784;9.190;2023-03-01T14:18:52;15.97;;;11.13;;
10963;SDS011;5534;48.784;9.190;2023-03-01T14:21:41;14.47;;;9.20;;
10963;SDS011;5534;48.784;9.190;2023-03-01T14:24:16;19.37;;;10.83;;
10963;SDS011;5534;48.784;9.190;2023-03-01T14:26:43;15.20;;;10.10;;
10963;SDS011;5534;48.784;9.190;2023-03-01T14:29:25;14.93;;;10.63;;
10963;SDS011;5534;48.784;9.190;2023-03-01T14:31:53;16.93;;;11.03;;
10963;SDS011;5534;48.784;9.190;2023-03-01T14:34:23;20.47;;;10.93;;
10963;SDS011;5534;48.784;9.190;2023-03-01T14:36:49;15.83;;;10.80;;
10963;SDS011;5534;48.784;9.190;2023-03-01T14:39:16;16.40;;;11.13;;
10963;SDS011;5534;48.784;9.190;2023-03-01T14:41:48;16.13;;;11.27;;
10963;SDS011;5534;48.784;9.190;2023-03-01T14:44:18;17.73;;;11.23;;
10963;SDS011;5534;48.784;9.190;2023-03-01T14:46:51;16.57;;;10.63;;
10963;SDS011;5534;48.784;9.190;2023-03-01T14:49:25;18.13;;;10.73;;
10963;SDS011;5534;48.784;9.190;2023-03-01T14:52:04;17.40;;;10.70;;
10963;SDS011;5534;48.784;9.190;2023-03-01T14:54:37;16.47;;;10.57;;
10963;SDS011;5534;48.784;9.190;2023-03-01T14:57:29;15.83;;;10.27;;
10963;SDS011;5534;48.784;9.190;2023-03-01T14:59:55;16.90;;;10.33;;
10963;SDS011;5534;48.784;9.190;2023-03-01T15:02:26;17.30;;;10.80;;
10963;SDS011;5534;48.784;9.190;2023-03-01T15:05:01;15.83;;;10.50;;
10963;SDS011;5534;48.784;9.190;2023-03-01T15:07:33;16.47;;;10.40;;
10963;SDS011;5534;48.784;9.190;2023-03-01T15:10:03;15.63;;;10.20;;
10963;SDS011;5534;48.784;9.190;2023-03-01T15:12:37;14.80;;;10.37;;
10963;SDS011;5534;48.784;9.190;2023-03-01T15:17:54;20.40;;;13.13;;
10963;SDS011;5534;48.784;9.190;2023-03-01T15:20:24;16.73;;;11.23;;
10963;SDS011;5534;48.784;9.190;2023-03-01T15:22:55;18.40;;;11.37;;
10963;SDS011;5534;48.784;9.190;2023-03-01T15:25:23;16.10;;;11.30;;
10963;SDS011;5534;48.784;9.190;2023-03-01T15:27:51;16.03;;;10.37;;
10963;SDS011;5534;48.784;9.190;2023-03-01T15:35:48;14.37;;;10.50;;
10963;SDS011;5534;48.784;9.190;2023-03-01T15:40:51;15.70;;;10.93;;
10963;SDS011;5534;48.784;9.190;2023-03-01T15:46:12;15.53;;;10.53;;
10963;SDS011;5534;48.784;9.190;2023-03-01T15:48:47;16.27;;;10.67;;
10963;SDS011;5534;48.784;9.190;2023-03-01T15:51:17;15.80;;;10.30;;
10963;SDS011;5534;48.784;9.190;2023-03-01T15:53:53;16.97;;;10.20;;
10963;SDS011;5534;48.784;9.190;2023-03-01T15:56:19;15.70;;;10.10;;
10963;SDS011;5534;48.784;9.190;2023-03-01T15:58:45;16.97;;;10.27;;
10963;SDS011;5534;48.784;9.190;2023-03-01T16:01:15;16.43;;;11.00;;
10963;SDS011;5534;48.784;9.190;2023-03-01T16:03:42;17.27;;;10.60;;
10963;SDS011;5534;48.784;9.190;2023-03-01T16:06:09;20.00;;;13.23;;
10963;SDS011;5534;48.784;9.190;2023-03-01T16:08:36;14.83;;;10.23;;
10963;SDS011;5534;48.784;9.190;2023-03-01T16:11:05;14.40;;;9.90;;
10963;SDS011;5534;48.784;9.190;2023-03-01T16:13:38;14.97;;;9.87;;
10963;SDS011;5534;48.784;9.190;2023-03-01T16:16:04;16.43;;;10.53;;
10963;SDS011;5534;48.784;9.190;2023-03-01T16:18:30;16.90;;;10.43;;
10963;SDS011;5534;48.784;9.190;2023-03-01T16:20:56;16.07;;;10.17;;
10963;SDS011;5534;48.784;9.190;2023-03-01T16:23:22;15.17;;;10.17;;
10963;SDS011;5534;48.784;9.190;2023-03-01T16:25:50;16.23;;;10.23;;
10963;SDS011;5534;48.784;9.190;2023-03-01T16:28:16;16.63;;;9.73;;
10963;SDS011;5534;48.784;9.190;2023-03-01T16:30:45;14.80;;;9.70;;
10963;SDS011;5534;48.784;9.190;2023-03-01T16:33:12;14.47;;;10.10;;
10963;SDS011;5534;48.784;9.190;2023-03-01T16:35:40;16.83;;;10.43;;
10963;SDS011;5534;48.784;9.190;2023-03-01T16:38:06;16.33;;;11.17;;
10963;SDS011;5534;48.784;9.190;2023-03-01T16:40:32;17.23;;;10.87;;
10963;SDS011;5534;48.784;9.190;2023-03-01T16:42:58;19.77;;;9.63;;
10963;SDS011;5534;48.784;9.190;2023-03-01T16:45:27;15.47;;;9.87;;
10963;SDS011;5534;48.784;9.190;2023-03-01T16:47:57;16.17;;;10.27;;
10963;SDS011;5534;48.784;9.190;2023-03-01T16:50:23;14.67;;;9.57;;
10963;SDS011;5534;48.784;9.190;2023-03-01T16:52:49;13.07;;;9.10;;
10963;SDS011;5534;48.784;9.190;2023-03-01T16:55:15;12.70;;;8.43;;
10963;SDS011;5534;48.784;9.190;2023-03-01T16:57:41;14.97;;;9.63;;
10963;SDS011;5534;48.784;9.190;2023-03-01T17:00:13;14.77;;;9.23;;
10963;SDS011;5534;48.784;9.190;2023-03-01T17:02:40;15.67;;;9.80;;
10963;SDS011;5534;48.784;9.190;2023-03-01T17:05:06;15.30;;;10.03;;
10963;SDS011;5534;48.784;9.190;2023-03-01T17:07:33;23.13;;;13.57;;
10963;SDS011;5534;48.784;9.190;2023-03-01T17:10:00;17.13;;;10.17;;
10963;SDS011;5534;48.784;9.190;2023-03-01T17:12:26;15.13;;;10.53;;
10963;SDS011;5534;48.784;9.190;2023-03-01T17:14:52;17.20;;;10.33;;
10963;SDS011;5534;48.784;9.190;2023-03-01T17:17:18;15.00;;;9.57;;
10963;SDS011;5534;48.784;9.190;2023-03-01T17:19:44;14.67;;;9.83;;